createdAt,value
2022-12-11T00:00:05.697Z,24.83
2022-12-11T00:02:32.317Z,25.70
2022-12-11T00:04:59.072Z,25.43
2022-12-11T00:07:25.756Z,25.20
2022-12-11T00:09:52.346Z,24.52
2022-12-11T00:12:20.373Z,25.63
2022-12-11T00:14:46.951Z,25.17
2022-12-11T00:17:13.585Z,26.20
2022-12-11T00:19:40.144Z,24.88
2022-12-11T00:22:06.871Z,26.13
2022-12-11T00:24:33.626Z,24.48
2022-12-11T00:27:00.201Z,23.75
2022-12-11T00:29:28.166Z,24.40
2022-12-11T00:31:54.844Z,24.80
2022-12-11T00:34:21.456Z,24.65
2022-12-11T00:36:48.016Z,29.08
2022-12-11T00:39:14.611Z,22.77
2022-12-11T00:41:41.181Z,26.13
2022-12-11T00:44:07.692Z,25.77
2022-12-11T00:46:35.821Z,24.40
2022-12-11T00:49:02.378Z,22.05
2022-12-11T00:51:28.994Z,24.73
2022-12-11T00:53:55.584Z,22.23
2022-12-11T00:56:23.425Z,20.30
2022-12-11T00:58:50.324Z,22.60
2022-12-11T01:01:19.479Z,20.85
2022-12-11T01:03:48.159Z,24.50
2022-12-11T01:06:16.302Z,23.63
2022-12-11T01:08:43.178Z,21.77
2022-12-11T01:11:12.258Z,23.13
2022-12-11T01:13:39.611Z,23.67
2022-12-11T01:16:08.106Z,24.02
2022-12-11T01:18:34.641Z,22.83
2022-12-11T01:21:07.724Z,23.45
2022-12-11T01:23:34.652Z,21.77
2022-12-11T01:26:05.753Z,23.23
2022-12-11T01:28:32.280Z,22.40
2022-12-11T01:30:58.985Z,22.60
2022-12-11T01:33:26.516Z,22.67
2022-12-11T01:35:53.266Z,23.13
2022-12-11T01:38:21.254Z,21.85
2022-12-11T01:40:54.093Z,23.83
2022-12-11T01:43:20.724Z,24.57
2022-12-11T01:45:48.750Z,21.75
2022-12-11T01:48:20.366Z,24.73
2022-12-11T01:50:50.612Z,25.45
2022-12-11T01:53:22.684Z,23.67
2022-12-11T01:55:51.421Z,23.03
2022-12-11T01:58:20.114Z,25.30
2022-12-11T02:00:46.847Z,24.20
2022-12-11T02:03:14.100Z,22.90
2022-12-11T02:05:43.970Z,23.70
2022-12-11T02:08:11.160Z,22.33
2022-12-11T02:10:48.883Z,23.95
2022-12-11T02:13:21.126Z,26.15
2022-12-11T02:15:55.478Z,20.48
2022-12-11T02:18:31.064Z,22.73
2022-12-11T02:21:03.234Z,22.43
2022-12-11T02:24:00.485Z,22.52
2022-12-11T02:27:11.239Z,25.30
2022-12-11T02:29:49.008Z,23.23
2022-12-11T02:32:21.247Z,21.52
2022-12-11T02:34:54.778Z,24.50
2022-12-11T02:37:24.551Z,23.10
2022-12-11T02:39:54.442Z,24.33
2022-12-11T02:42:21.962Z,25.13
2022-12-11T02:44:52.383Z,22.05
2022-12-11T02:47:21.302Z,23.83
2022-12-11T02:49:50.098Z,21.15
2022-12-11T02:52:20.271Z,22.40
2022-12-11T02:54:48.809Z,23.10
2022-12-11T02:57:19.147Z,24.23
2022-12-11T02:59:46.644Z,22.57
2022-12-11T03:02:17.018Z,22.42
2022-12-11T03:04:44.543Z,22.83
2022-12-11T03:07:15.368Z,23.30
2022-12-11T03:09:43.800Z,21.27
2022-12-11T03:12:13.197Z,23.23
2022-12-11T03:14:42.234Z,22.17
2022-12-11T03:17:15.215Z,23.70
2022-12-11T03:19:50.009Z,23.30
2022-12-11T03:22:20.425Z,21.25
2022-12-11T03:24:52.953Z,24.97
2022-12-11T03:27:26.944Z,23.55
2022-12-11T03:29:59.020Z,23.95
2022-12-11T03:32:31.269Z,21.15
2022-12-11T03:35:03.460Z,22.63
2022-12-11T03:37:34.524Z,22.83
2022-12-11T03:40:07.421Z,22.30
2022-12-11T03:42:34.743Z,22.75
2022-12-11T03:45:03.708Z,23.10
2022-12-11T03:47:33.564Z,20.67
2022-12-11T03:50:03.801Z,24.93
2022-12-11T03:52:31.651Z,24.13
2022-12-11T03:55:03.901Z,25.30
2022-12-11T03:57:35.547Z,24.35
2022-12-11T04:00:02.963Z,21.73
2022-12-11T04:02:31.032Z,23.00
2022-12-11T04:04:57.582Z,23.73
2022-12-11T04:07:24.324Z,21.40
2022-12-11T04:09:50.900Z,23.17
2022-12-11T04:12:17.461Z,24.10
2022-12-11T04:14:44.149Z,22.53
2022-12-11T04:17:10.741Z,22.35
2022-12-11T04:19:38.603Z,22.60
2022-12-11T04:22:05.261Z,23.15
2022-12-11T04:24:31.840Z,21.38
2022-12-11T04:26:58.409Z,19.90
2022-12-11T04:29:25.083Z,22.33
2022-12-11T04:31:51.615Z,20.55
2022-12-11T04:34:18.106Z,23.58
2022-12-11T04:36:46.184Z,21.15
2022-12-11T04:39:12.857Z,21.67
2022-12-11T04:41:39.363Z,22.45
2022-12-11T04:44:05.856Z,20.77
2022-12-11T04:46:32.490Z,24.92
2022-12-11T04:48:59.160Z,23.20
2022-12-11T04:51:25.858Z,24.53
2022-12-11T04:53:53.705Z,22.35
2022-12-11T04:56:21.296Z,22.05
2022-12-11T04:58:48.343Z,19.73
2022-12-11T05:01:17.090Z,21.65
2022-12-11T05:03:44.074Z,23.53
2022-12-11T05:06:12.024Z,21.83
2022-12-11T05:08:40.704Z,21.65
2022-12-11T05:11:10.949Z,21.67
2022-12-11T05:13:37.625Z,19.60
2022-12-11T05:16:05.036Z,20.27
2022-12-11T05:18:31.882Z,22.77
2022-12-11T05:21:00.014Z,22.92
2022-12-11T05:23:27.381Z,22.33
2022-12-11T05:25:54.010Z,24.13
2022-12-11T05:28:22.940Z,26.43
2022-12-11T05:30:49.446Z,21.88
2022-12-11T05:33:15.945Z,22.92
2022-12-11T05:35:47.469Z,22.77
2022-12-11T05:38:14.117Z,21.63
2022-12-11T05:40:40.703Z,41.10
2022-12-11T05:43:07.286Z,24.65
2022-12-11T05:45:35.370Z,20.75
2022-12-11T05:48:01.961Z,24.40
2022-12-11T05:50:28.626Z,21.58
2022-12-11T05:52:55.182Z,22.50
2022-12-11T05:55:21.879Z,21.95
2022-12-11T05:57:49.036Z,21.83
2022-12-11T06:00:15.604Z,23.80
2022-12-11T06:02:43.619Z,23.30
2022-12-11T06:05:10.691Z,23.47
2022-12-11T06:07:37.519Z,24.50
2022-12-11T06:10:04.631Z,23.65
2022-12-11T06:12:31.261Z,26.80
2022-12-11T06:14:57.761Z,23.63
2022-12-11T06:17:24.501Z,24.27
2022-12-11T06:19:52.556Z,22.52
2022-12-11T06:22:19.308Z,25.33
2022-12-11T06:24:46.027Z,22.73
2022-12-11T06:27:12.580Z,26.65
2022-12-11T06:29:39.194Z,28.10
2022-12-11T06:32:05.763Z,24.25
2022-12-11T06:34:32.338Z,25.63
2022-12-11T06:37:00.236Z,25.10
2022-12-11T06:39:26.954Z,22.92
2022-12-11T06:41:53.499Z,25.13
2022-12-11T06:44:20.145Z,25.05
2022-12-11T06:46:46.821Z,27.88
2022-12-11T06:49:13.355Z,23.83
2022-12-11T06:51:39.978Z,25.30
2022-12-11T06:54:07.922Z,31.17
2022-12-11T06:56:35.251Z,24.38
2022-12-11T06:59:07.109Z,27.23
2022-12-11T07:01:34.300Z,23.75
2022-12-11T07:04:00.910Z,23.45
2022-12-11T07:06:28.298Z,24.67
2022-12-11T07:08:55.566Z,25.75
2022-12-11T07:11:23.666Z,23.25
2022-12-11T07:13:50.926Z,28.73
2022-12-11T07:16:17.835Z,24.20
2022-12-11T07:18:47.665Z,24.90
2022-12-11T07:21:14.452Z,27.00
2022-12-11T07:23:41.677Z,24.55
2022-12-11T07:26:10.668Z,24.77
2022-12-11T07:28:39.146Z,26.45
2022-12-11T07:31:06.726Z,26.93
2022-12-11T07:33:33.365Z,26.15
2022-12-11T07:36:01.443Z,25.42
2022-12-11T07:38:28.119Z,26.92
2022-12-11T07:40:54.686Z,22.73
2022-12-11T07:43:21.297Z,23.57
2022-12-11T07:45:49.319Z,24.75
2022-12-11T07:48:15.969Z,23.45
2022-12-11T07:50:42.473Z,23.67
2022-12-11T07:53:09.144Z,25.83
2022-12-11T07:55:35.669Z,23.67
2022-12-11T07:58:02.429Z,25.52
2022-12-11T08:00:29.070Z,24.25
2022-12-11T08:02:57.011Z,27.58
2022-12-11T08:05:23.731Z,25.45
2022-12-11T08:07:50.260Z,24.70
2022-12-11T08:10:17.256Z,25.65
2022-12-11T08:12:43.766Z,27.40
2022-12-11T08:15:11.301Z,25.08
2022-12-11T08:17:40.145Z,25.88
2022-12-11T08:20:09.747Z,24.90
2022-12-11T08:22:36.325Z,25.27
2022-12-11T08:25:03.050Z,25.67
2022-12-11T08:27:29.645Z,26.48
2022-12-11T08:29:56.193Z,26.45
2022-12-11T08:32:22.867Z,29.17
2022-12-11T08:34:51.321Z,23.73
2022-12-11T08:37:19.291Z,23.77
2022-12-11T08:39:45.846Z,24.90
2022-12-11T08:42:12.427Z,25.30
2022-12-11T08:44:38.968Z,24.87
2022-12-11T08:47:05.492Z,24.73
2022-12-11T08:49:34.646Z,25.52
2022-12-11T08:52:02.502Z,26.05
2022-12-11T08:54:30.506Z,29.40
2022-12-11T08:56:58.322Z,28.47
2022-12-11T08:59:25.310Z,30.40
2022-12-11T09:01:51.986Z,25.38
2022-12-11T09:04:18.527Z,29.15
2022-12-11T09:06:45.042Z,33.25
2022-12-11T09:09:11.598Z,24.53
2022-12-11T09:11:39.584Z,25.58
2022-12-11T09:14:07.876Z,28.52
2022-12-11T09:16:36.412Z,25.88
2022-12-11T09:19:03.942Z,23.02
2022-12-11T09:21:30.922Z,25.33
2022-12-11T09:23:59.381Z,27.52
2022-12-11T09:26:27.125Z,25.75
2022-12-11T09:28:55.259Z,20.33
2022-12-11T09:31:24.738Z,22.58
2022-12-11T09:33:54.601Z,19.87
2022-12-11T09:36:21.306Z,21.48
2022-12-11T09:38:47.880Z,23.45
2022-12-11T09:41:32.677Z,20.98
2022-12-11T09:44:06.612Z,23.65
2022-12-11T09:46:34.921Z,22.60
2022-12-11T09:49:03.227Z,22.48
2022-12-11T09:51:36.486Z,24.10
2022-12-11T09:54:04.718Z,23.58
2022-12-11T09:56:35.927Z,22.00
2022-12-11T09:59:18.467Z,18.90
2022-12-11T10:01:50.505Z,20.80
2022-12-11T10:04:40.320Z,21.02
2022-12-11T10:07:13.691Z,21.95
2022-12-11T10:09:48.245Z,22.38
2022-12-11T10:12:30.302Z,25.20
2022-12-11T10:15:19.551Z,22.65
2022-12-11T10:17:47.348Z,20.10
2022-12-11T10:20:20.393Z,25.38
2022-12-11T10:22:48.311Z,25.65
2022-12-11T10:25:21.426Z,21.13
2022-12-11T10:27:48.241Z,22.40
2022-12-11T10:30:18.675Z,19.95
2022-12-11T10:32:54.309Z,26.02
2022-12-11T10:35:31.312Z,21.80
2022-12-11T10:38:10.192Z,21.80
2022-12-11T10:40:38.496Z,22.40
2022-12-11T10:43:05.117Z,22.70
2022-12-11T10:45:33.067Z,23.23
2022-12-11T10:48:04.464Z,24.10
2022-12-11T10:50:31.245Z,20.37
2022-12-11T10:52:58.334Z,23.15
2022-12-11T10:55:28.266Z,21.00
2022-12-11T10:57:58.285Z,22.83
2022-12-11T11:00:36.210Z,22.17
2022-12-11T11:03:04.771Z,19.73
2022-12-11T11:05:33.707Z,23.33
2022-12-11T11:08:12.582Z,28.77
2022-12-11T11:10:50.430Z,25.45
2022-12-11T11:13:17.171Z,24.88
2022-12-11T11:15:45.427Z,31.20
2022-12-11T11:18:16.821Z,28.20
2022-12-11T11:20:47.857Z,30.75
2022-12-11T11:23:16.411Z,30.98
2022-12-11T11:25:51.386Z,23.30
2022-12-11T11:28:20.477Z,22.67
2022-12-11T11:30:58.793Z,27.33
2022-12-11T11:33:25.566Z,27.75
2022-12-11T11:35:54.171Z,28.15
2022-12-11T11:38:24.599Z,30.80
2022-12-11T11:41:00.746Z,27.53
2022-12-11T11:43:37.864Z,34.05
2022-12-11T11:46:12.113Z,30.30
2022-12-11T11:48:49.775Z,25.35
2022-12-11T11:51:23.260Z,35.40
2022-12-11T11:53:52.800Z,31.73
2022-12-11T11:56:22.611Z,32.00
2022-12-11T11:58:57.220Z,27.60
2022-12-11T12:01:26.328Z,26.45
2022-12-11T12:03:53.370Z,26.98
2022-12-11T12:06:28.966Z,26.20
2022-12-11T12:09:03.311Z,23.55
2022-12-11T12:11:37.810Z,28.55
2022-12-11T12:14:43.563Z,26.83
2022-12-11T12:17:13.067Z,25.20
2022-12-11T12:19:46.966Z,23.10
2022-12-11T12:22:26.608Z,26.25
2022-12-11T12:25:02.715Z,26.73
2022-12-11T12:27:52.993Z,24.20
2022-12-11T12:30:23.320Z,22.23
2022-12-11T12:33:06.121Z,23.07
2022-12-11T12:35:35.927Z,22.90
2022-12-11T12:38:10.897Z,25.65
2022-12-11T12:40:50.125Z,22.40
2022-12-11T12:43:33.769Z,27.50
2022-12-11T12:46:08.769Z,26.13
2022-12-11T12:48:36.719Z,22.20
2022-12-11T12:51:04.302Z,22.67
2022-12-11T12:53:34.886Z,26.13
2022-12-11T12:56:03.327Z,25.38
2022-12-11T12:58:41.564Z,25.97
2022-12-11T13:01:09.906Z,26.23
2022-12-11T13:03:50.593Z,45.20
2022-12-11T13:06:29.137Z,29.42
2022-12-11T13:08:56.089Z,30.48
2022-12-11T13:11:32.443Z,28.67
2022-12-11T13:14:03.560Z,24.63
2022-12-11T13:16:36.689Z,23.40
2022-12-11T13:19:17.319Z,26.73
2022-12-11T13:21:55.815Z,29.10
2022-12-11T13:24:26.957Z,25.13
2022-12-11T13:26:53.794Z,25.50
2022-12-11T13:29:35.155Z,27.38
2022-12-11T13:32:05.234Z,27.67
2022-12-11T13:34:35.607Z,28.45
2022-12-11T13:37:03.806Z,26.77
2022-12-11T13:39:32.074Z,25.15
2022-12-11T13:42:04.689Z,28.15
2022-12-11T13:44:34.289Z,31.33
2022-12-11T13:47:04.172Z,26.70
2022-12-11T13:49:36.995Z,25.37
2022-12-11T13:52:05.582Z,26.70
2022-12-11T13:54:34.601Z,25.33
2022-12-11T13:57:04.491Z,29.77
2022-12-11T13:59:35.786Z,26.27
2022-12-11T14:02:15.185Z,26.47
2022-12-11T14:04:43.566Z,26.23
2022-12-11T14:07:11.576Z,25.17
2022-12-11T14:09:43.551Z,26.85
2022-12-11T14:12:17.287Z,23.42
2022-12-11T14:14:47.092Z,26.67
2022-12-11T14:17:14.697Z,27.02
2022-12-11T14:19:46.672Z,24.77
2022-12-11T14:22:19.712Z,23.35
2022-12-11T14:24:50.927Z,29.02
2022-12-11T14:27:18.076Z,27.83
2022-12-11T14:29:44.824Z,27.80
2022-12-11T14:32:19.887Z,28.75
2022-12-11T14:34:49.639Z,26.83
2022-12-11T14:37:19.081Z,26.80
2022-12-11T14:39:50.581Z,29.90
2022-12-11T14:42:20.401Z,31.13
2022-12-11T14:44:51.285Z,28.80
2022-12-11T14:47:21.512Z,28.25
2022-12-11T14:49:53.892Z,28.45
2022-12-11T14:52:25.649Z,23.97
2022-12-11T14:54:56.672Z,26.60
2022-12-11T14:57:27.565Z,27.95
2022-12-11T14:59:54.911Z,26.42
2022-12-11T15:02:26.073Z,27.85
2022-12-11T15:05:06.241Z,40.63
2022-12-11T15:07:33.356Z,32.03
2022-12-11T15:09:59.930Z,28.80
2022-12-11T15:12:26.674Z,26.48
2022-12-11T15:14:55.557Z,27.73
2022-12-11T15:17:23.959Z,33.80
2022-12-11T15:19:53.615Z,25.38
2022-12-11T15:22:23.811Z,23.35
2022-12-11T15:24:52.447Z,26.35
2022-12-11T15:27:25.516Z,26.10
2022-12-11T15:29:52.357Z,22.70
2022-12-11T15:32:20.926Z,30.70
2022-12-11T15:34:50.186Z,29.63
2022-12-11T15:37:28.778Z,28.77
2022-12-11T15:39:57.085Z,34.22
2022-12-11T15:42:26.485Z,34.73
2022-12-11T15:44:53.687Z,32.08
2022-12-11T15:47:22.854Z,36.92
2022-12-11T15:49:49.492Z,32.60
2022-12-11T15:52:16.139Z,27.50
2022-12-11T15:54:44.028Z,31.73
2022-12-11T15:57:16.645Z,33.08
2022-12-11T15:59:44.737Z,32.40
2022-12-11T16:02:12.378Z,32.50
2022-12-11T16:04:39.055Z,38.40
2022-12-11T16:07:06.728Z,39.00
2022-12-11T16:09:33.295Z,34.38
2022-12-11T16:12:01.218Z,35.25
2022-12-11T16:14:27.740Z,34.38
2022-12-11T16:16:54.315Z,36.22
2022-12-11T16:19:20.922Z,36.73
2022-12-11T16:21:47.447Z,38.33
2022-12-11T16:24:13.997Z,34.47
2022-12-11T16:26:40.564Z,34.15
2022-12-11T16:29:08.430Z,35.15
2022-12-11T16:31:34.969Z,34.87
2022-12-11T16:34:01.483Z,36.80
2022-12-11T16:36:28.060Z,34.38
2022-12-11T16:38:54.646Z,38.22
2022-12-11T16:41:21.539Z,37.97
2022-12-11T16:43:48.223Z,37.83
2022-12-11T16:46:17.327Z,37.83
2022-12-11T16:48:44.613Z,31.85
2022-12-11T16:51:11.166Z,34.88
2022-12-11T16:53:37.805Z,33.90
2022-12-11T16:56:04.855Z,36.10
2022-12-11T16:58:31.381Z,32.53
2022-12-11T17:00:57.928Z,36.00
2022-12-11T17:03:25.829Z,29.17
2022-12-11T17:05:52.562Z,30.50
2022-12-11T17:08:19.129Z,31.87
2022-12-11T17:10:45.725Z,33.45
2022-12-11T17:13:12.719Z,31.15
2022-12-11T17:15:40.357Z,38.10
2022-12-11T17:18:07.165Z,40.08
2022-12-11T17:20:35.193Z,43.77
2022-12-11T17:23:01.858Z,38.88
2022-12-11T17:25:28.404Z,36.40
2022-12-11T17:27:55.452Z,41.22
2022-12-11T17:30:22.033Z,48.42
2022-12-11T17:32:48.893Z,43.77
2022-12-11T17:35:15.536Z,44.10
2022-12-11T17:37:43.447Z,40.40
2022-12-11T17:40:11.050Z,34.03
2022-12-11T17:42:37.612Z,36.38
2022-12-11T17:45:04.834Z,40.93
2022-12-11T17:47:31.672Z,40.88
2022-12-11T17:49:58.199Z,38.03
2022-12-11T17:52:27.344Z,41.22
2022-12-11T17:54:58.785Z,36.15
2022-12-11T17:57:25.370Z,36.77
2022-12-11T17:59:53.686Z,39.97
2022-12-11T18:02:20.260Z,39.03
2022-12-11T18:04:46.802Z,34.95
2022-12-11T18:07:13.730Z,36.53
2022-12-11T18:09:40.941Z,39.93
2022-12-11T18:12:10.244Z,39.92
2022-12-11T18:14:37.428Z,39.55
2022-12-11T18:17:04.100Z,38.65
2022-12-11T18:19:30.627Z,29.70
2022-12-11T18:21:57.695Z,38.97
2022-12-11T18:24:24.234Z,40.42
2022-12-11T18:26:50.766Z,41.88
2022-12-11T18:29:18.629Z,35.95
2022-12-11T18:31:45.214Z,39.90
2022-12-11T18:34:11.781Z,39.33
2022-12-11T18:36:38.630Z,40.90
2022-12-11T18:39:05.155Z,37.40
2022-12-11T18:41:31.684Z,39.88
2022-12-11T18:43:59.583Z,39.42
2022-12-11T18:46:27.565Z,36.23
2022-12-11T18:48:54.236Z,36.90
2022-12-11T18:51:22.170Z,37.03
2022-12-11T18:53:48.697Z,33.15
2022-12-11T18:56:17.318Z,27.08
2022-12-11T18:58:44.271Z,34.50
2022-12-11T19:01:15.533Z,33.15
2022-12-11T19:03:43.607Z,31.13
2022-12-11T19:06:12.621Z,34.55
2022-12-11T19:08:39.715Z,30.70
2022-12-11T19:11:07.326Z,33.33
2022-12-11T19:13:34.522Z,33.33
2022-12-11T19:16:01.815Z,34.47
2022-12-11T19:18:28.660Z,33.42
2022-12-11T19:21:06.460Z,35.58
2022-12-11T19:23:35.258Z,31.77
2022-12-11T19:26:01.827Z,35.53
2022-12-11T19:28:28.569Z,30.40
2022-12-11T19:30:55.106Z,34.25
2022-12-11T19:33:21.760Z,36.25
2022-12-11T19:35:48.339Z,32.37
2022-12-11T19:38:16.262Z,36.67
2022-12-11T19:40:43.755Z,35.20
2022-12-11T19:43:11.236Z,41.15
2022-12-11T19:45:37.955Z,42.30
2022-12-11T19:48:05.434Z,40.03
2022-12-11T19:50:32.097Z,39.88
2022-12-11T19:52:58.690Z,39.58
2022-12-11T19:55:26.663Z,38.22
2022-12-11T19:57:53.246Z,36.75
2022-12-11T20:00:19.916Z,35.63
2022-12-11T20:02:46.572Z,42.22
2022-12-11T20:05:13.432Z,42.22
2022-12-11T20:07:40.211Z,42.25
2022-12-11T20:10:07.540Z,45.97
2022-12-11T20:12:35.558Z,61.07
2022-12-11T20:15:03.437Z,69.00
2022-12-11T20:17:30.213Z,49.33
2022-12-11T20:19:57.006Z,51.03
2022-12-11T20:22:23.554Z,45.50
2022-12-11T20:24:50.127Z,46.67
2022-12-11T20:27:16.867Z,49.78
2022-12-11T20:29:44.783Z,46.22
2022-12-11T20:32:11.580Z,43.25
2022-12-11T20:34:38.385Z,42.22
2022-12-11T20:37:04.912Z,38.50
2022-12-11T20:39:31.479Z,36.85
2022-12-11T20:41:58.011Z,40.08
2022-12-11T20:44:24.564Z,37.25
2022-12-11T20:46:52.476Z,37.75
2022-12-11T20:49:19.088Z,42.47
2022-12-11T20:51:45.883Z,37.60
2022-12-11T20:54:12.469Z,34.15
2022-12-11T20:56:39.035Z,33.83
2022-12-11T20:59:05.874Z,33.53
2022-12-11T21:01:33.095Z,34.67
2022-12-11T21:04:01.146Z,39.47
2022-12-11T21:06:30.138Z,38.25
2022-12-11T21:08:57.258Z,38.88
2022-12-11T21:11:24.483Z,40.22
2022-12-11T21:13:51.655Z,41.27
2022-12-11T21:16:19.290Z,41.80
2022-12-11T21:18:45.868Z,40.72
2022-12-11T21:21:14.158Z,43.42
2022-12-11T21:23:41.009Z,39.03
2022-12-11T21:26:07.614Z,39.43
2022-12-11T21:28:35.808Z,42.78
2022-12-11T21:31:04.341Z,41.45
2022-12-11T21:33:31.347Z,44.05
2022-12-11T21:35:59.578Z,39.38
2022-12-11T21:38:28.710Z,39.53
2022-12-11T21:40:56.363Z,37.15
2022-12-11T21:43:23.332Z,38.65
2022-12-11T21:46:05.715Z,40.08
2022-12-11T21:48:32.423Z,37.33
2022-12-11T21:51:06.140Z,38.33
2022-12-11T21:53:34.748Z,42.08
2022-12-11T21:56:05.163Z,45.67
2022-12-11T21:58:31.720Z,36.15
2022-12-11T22:00:58.502Z,43.63
2022-12-11T22:03:25.239Z,38.60
2022-12-11T22:05:51.829Z,41.08
2022-12-11T22:08:18.518Z,37.97
2022-12-11T22:10:46.464Z,36.42
2022-12-11T22:13:13.192Z,41.13
2022-12-11T22:15:39.885Z,38.70
2022-12-11T22:18:06.629Z,36.42
2022-12-11T22:20:33.205Z,36.40
2022-12-11T22:22:59.898Z,40.15
2022-12-11T22:25:26.511Z,36.97
2022-12-11T22:27:54.377Z,39.57
2022-12-11T22:30:20.929Z,46.03
2022-12-11T22:32:47.469Z,36.85
2022-12-11T22:35:14.471Z,37.67
2022-12-11T22:37:41.256Z,35.00
2022-12-11T22:40:08.440Z,36.10
2022-12-11T22:42:34.976Z,36.22
2022-12-11T22:45:03.030Z,35.92
2022-12-11T22:47:29.586Z,37.70
2022-12-11T22:49:56.391Z,39.65
2022-12-11T22:52:22.934Z,36.33
2022-12-11T22:54:49.457Z,39.15
2022-12-11T22:57:16.031Z,36.22
2022-12-11T22:59:42.681Z,38.95
2022-12-11T23:02:10.641Z,39.17
2022-12-11T23:04:37.387Z,40.63
2022-12-11T23:07:04.356Z,37.13
2022-12-11T23:09:31.169Z,42.00
2022-12-11T23:11:57.777Z,42.70
2022-12-11T23:14:24.851Z,37.55
2022-12-11T23:16:51.442Z,37.00
2022-12-11T23:19:25.112Z,37.72
2022-12-11T23:21:52.417Z,35.17
2022-12-11T23:24:19.075Z,30.30
2022-12-11T23:26:45.671Z,34.35
2022-12-11T23:29:12.354Z,33.43
2022-12-11T23:31:38.853Z,36.97
2022-12-11T23:34:05.557Z,33.42
2022-12-11T23:36:33.512Z,35.40
2022-12-11T23:39:00.111Z,31.48
2022-12-11T23:41:26.754Z,38.10
2022-12-11T23:43:53.326Z,32.63
2022-12-11T23:46:21.770Z,37.72
2022-12-11T23:48:48.561Z,37.65
2022-12-11T23:51:18.632Z,37.95
2022-12-11T23:53:46.898Z,37.80
2022-12-11T23:56:16.487Z,38.63
2022-12-11T23:58:43.051Z,34.08
